sensor_id;sensor_type;location;lat;lon;timestamp;P1;durP1;ratioP1;P2;durP2;ratioP2
2710;SDS011;20721;47.402;8.550;2022-12-20T00:01:08;33.60;;;32.58;;
2710;SDS011;20721;47.402;8.550;2022-12-20T00:02:07;33.24;;;32.14;;
2710;SDS011;20721;47.402;8.550;2022-12-20T00:03:07;34.27;;;33.13;;
2710;SDS011;20721;47.402;8.550;2022-12-20T00:04:08;35.51;;;34.54;;
2710;SDS011;20721;47.402;8.550;2022-12-20T00:05:07;38.63;;;36.09;;
2710;SDS011;20721;47.402;8.550;2022-12-20T00:07:07;35.08;;;33.55;;
2710;SDS011;20721;47.402;8.550;2022-12-20T00:08:08;36.03;;;34.88;;
2710;SDS011;20721;47.402;8.550;2022-12-20T00:09:10;38.00;;;36.12;;
2710;SDS011;20721;47.402;8.550;2022-12-20T00:11:09;38.02;;;35.82;;
2710;SDS011;20721;47.402;8.550;2022-12-20T00:12:11;38.14;;;35.69;;
2710;SDS011;20721;47.402;8.550;2022-12-20T00:13:07;38.14;;;35.69;;
2710;SDS011;20721;47.402;8.550;2022-12-20T00:14:08;36.90;;;35.19;;
2710;SDS011;20721;47.402;8.550;2022-12-20T00:15:07;38.79;;;36.40;;
2710;SDS011;20721;47.402;8.550;2022-12-20T00:16:15;38.81;;;36.21;;
2710;SDS011;20721;47.402;8.550;2022-12-20T00:17:07;38.81;;;36.21;;
2710;SDS011;20721;47.402;8.550;2022-12-20T00:18:07;40.55;;;37.56;;
2710;SDS011;20721;47.402;8.550;2022-12-20T00:19:09;40.82;;;38.55;;
2710;SDS011;20721;47.402;8.550;2022-12-20T00:20:07;39.14;;;36.24;;
2710;SDS011;20721;47.402;8.550;2022-12-20T00:21:09;37.32;;;34.87;;
2710;SDS011;20721;47.402;8.550;2022-12-20T00:22:07;38.04;;;35.61;;
2710;SDS011;20721;47.402;8.550;2022-12-20T00:23:07;38.81;;;36.59;;
2710;SDS011;20721;47.402;8.550;2022-12-20T00:24:07;38.05;;;35.97;;
2710;SDS011;20721;47.402;8.550;2022-12-20T00:25:07;36.72;;;35.34;;
2710;SDS011;20721;47.402;8.550;2022-12-20T00:26:13;38.42;;;36.89;;
2710;SDS011;20721;47.402;8.550;2022-12-20T00:27:07;39.30;;;37.42;;
2710;SDS011;20721;47.402;8.550;2022-12-20T00:28:07;37.05;;;35.73;;
2710;SDS011;20721;47.402;8.550;2022-12-20T00:29:07;38.25;;;36.41;;
2710;SDS011;20721;47.402;8.550;2022-12-20T00:30:07;40.28;;;38.10;;
2710;SDS011;20721;47.402;8.550;2022-12-20T00:31:07;38.85;;;36.97;;
2710;SDS011;20721;47.402;8.550;2022-12-20T00:34:08;39.59;;;37.62;;
2710;SDS011;20721;47.402;8.550;2022-12-20T00:35:07;40.62;;;38.03;;
2710;SDS011;20721;47.402;8.550;2022-12-20T00:36:07;38.73;;;36.82;;
2710;SDS011;20721;47.402;8.550;2022-12-20T00:37:07;36.81;;;35.54;;
2710;SDS011;20721;47.402;8.550;2022-12-20T00:38:07;37.98;;;36.29;;
2710;SDS011;20721;47.402;8.550;2022-12-20T00:39:08;37.97;;;35.90;;
2710;SDS011;20721;47.402;8.550;2022-12-20T00:40:07;38.56;;;36.51;;
2710;SDS011;20721;47.402;8.550;2022-12-20T00:41:10;37.96;;;36.15;;
2710;SDS011;20721;47.402;8.550;2022-12-20T00:42:07;39.44;;;37.84;;
2710;SDS011;20721;47.402;8.550;2022-12-20T00:43:12;36.66;;;35.36;;
2710;SDS011;20721;47.402;8.550;2022-12-20T00:44:07;36.66;;;35.36;;
2710;SDS011;20721;47.402;8.550;2022-12-20T00:46:08;40.24;;;38.10;;
2710;SDS011;20721;47.402;8.550;2022-12-20T00:47:07;40.83;;;38.22;;
2710;SDS011;20721;47.402;8.550;2022-12-20T00:48:07;37.26;;;35.10;;
2710;SDS011;20721;47.402;8.550;2022-12-20T00:49:11;39.04;;;36.82;;
2710;SDS011;20721;47.402;8.550;2022-12-20T00:50:07;39.04;;;36.82;;
2710;SDS011;20721;47.402;8.550;2022-12-20T00:51:11;35.84;;;34.06;;
2710;SDS011;20721;47.402;8.550;2022-12-20T00:52:07;39.53;;;37.21;;
2710;SDS011;20721;47.402;8.550;2022-12-20T00:53:07;39.25;;;37.15;;
2710;SDS011;20721;47.402;8.550;2022-12-20T00:54:07;38.24;;;36.02;;
2710;SDS011;20721;47.402;8.550;2022-12-20T00:55:07;38.23;;;36.35;;
2710;SDS011;20721;47.402;8.550;2022-12-20T00:56:08;36.61;;;35.17;;
2710;SDS011;20721;47.402;8.550;2022-12-20T00:57:07;38.83;;;36.96;;
2710;SDS011;20721;47.402;8.550;2022-12-20T00:58:07;39.02;;;36.75;;
2710;SDS011;20721;47.402;8.550;2022-12-20T00:59:08;37.15;;;35.78;;
2710;SDS011;20721;47.402;8.550;2022-12-20T01:00:07;36.56;;;34.86;;
2710;SDS011;20721;47.402;8.550;2022-12-20T01:01:13;37.42;;;35.62;;
2710;SDS011;20721;47.402;8.550;2022-12-20T01:02:07;38.09;;;36.17;;
2710;SDS011;20721;47.402;8.550;2022-12-20T01:03:07;39.18;;;37.01;;
2710;SDS011;20721;47.402;8.550;2022-12-20T01:04:07;37.89;;;35.78;;
2710;SDS011;20721;47.402;8.550;2022-12-20T01:05:07;37.00;;;34.86;;
2710;SDS011;20721;47.402;8.550;2022-12-20T01:06:09;37.94;;;35.84;;
2710;SDS011;20721;47.402;8.550;2022-12-20T01:07:07;39.63;;;37.25;;
2710;SDS011;20721;47.402;8.550;2022-12-20T01:08:07;36.78;;;34.89;;
2710;SDS011;20721;47.402;8.550;2022-12-20T01:09:08;36.39;;;34.55;;
2710;SDS011;20721;47.402;8.550;2022-12-20T01:10:07;33.01;;;31.74;;
2710;SDS011;20721;47.402;8.550;2022-12-20T01:12:07;34.61;;;33.27;;
2710;SDS011;20721;47.402;8.550;2022-12-20T01:13:07;32.87;;;31.29;;
2710;SDS011;20721;47.402;8.550;2022-12-20T01:14:12;34.44;;;33.06;;
2710;SDS011;20721;47.402;8.550;2022-12-20T01:15:07;31.02;;;29.27;;
2710;SDS011;20721;47.402;8.550;2022-12-20T01:16:15;28.32;;;26.81;;
2710;SDS011;20721;47.402;8.550;2022-12-20T01:17:07;28.32;;;26.81;;
2710;SDS011;20721;47.402;8.550;2022-12-20T01:18:07;26.58;;;25.51;;
2710;SDS011;20721;47.402;8.550;2022-12-20T01:19:08;27.48;;;26.52;;
2710;SDS011;20721;47.402;8.550;2022-12-20T01:20:12;26.75;;;25.55;;
2710;SDS011;20721;47.402;8.550;2022-12-20T01:21:13;26.94;;;26.20;;
2710;SDS011;20721;47.402;8.550;2022-12-20T01:22:07;26.94;;;26.20;;
2710;SDS011;20721;47.402;8.550;2022-12-20T01:23:07;26.07;;;24.77;;
2710;SDS011;20721;47.402;8.550;2022-12-20T01:24:07;26.36;;;25.33;;
2710;SDS011;20721;47.402;8.550;2022-12-20T01:25:07;26.30;;;25.66;;
2710;SDS011;20721;47.402;8.550;2022-12-20T01:26:13;25.27;;;24.54;;
2710;SDS011;20721;47.402;8.550;2022-12-20T01:27:07;25.27;;;24.54;;
2710;SDS011;20721;47.402;8.550;2022-12-20T01:28:07;26.61;;;25.68;;
2710;SDS011;20721;47.402;8.550;2022-12-20T01:29:08;27.16;;;26.42;;
2710;SDS011;20721;47.402;8.550;2022-12-20T01:30:07;28.13;;;27.14;;
2710;SDS011;20721;47.402;8.550;2022-12-20T01:31:08;26.88;;;25.86;;
2710;SDS011;20721;47.402;8.550;2022-12-20T01:32:07;26.30;;;25.71;;
2710;SDS011;20721;47.402;8.550;2022-12-20T01:33:07;26.48;;;26.16;;
2710;SDS011;20721;47.402;8.550;2022-12-20T01:34:08;27.46;;;26.89;;
2710;SDS011;20721;47.402;8.550;2022-12-20T01:35:07;28.70;;;27.80;;
2710;SDS011;20721;47.402;8.550;2022-12-20T01:36:10;27.86;;;27.35;;
2710;SDS011;20721;47.402;8.550;2022-12-20T01:37:07;29.60;;;28.81;;
2710;SDS011;20721;47.402;8.550;2022-12-20T01:38:07;29.59;;;28.85;;
2710;SDS011;20721;47.402;8.550;2022-12-20T01:39:11;29.42;;;27.86;;
2710;SDS011;20721;47.402;8.550;2022-12-20T01:41:07;30.98;;;29.77;;
2710;SDS011;20721;47.402;8.550;2022-12-20T01:42:10;32.11;;;30.65;;
2710;SDS011;20721;47.402;8.550;2022-12-20T01:43:09;30.88;;;29.45;;
2710;SDS011;20721;47.402;8.550;2022-12-20T01:45:11;29.65;;;28.57;;
2710;SDS011;20721;47.402;8.550;2022-12-20T01:46:07;30.74;;;29.82;;
2710;SDS011;20721;47.402;8.550;2022-12-20T01:47:07;30.93;;;29.86;;
2710;SDS011;20721;47.402;8.550;2022-12-20T01:50:09;32.67;;;31.81;;
2710;SDS011;20721;47.402;8.550;2022-12-20T01:52:14;32.48;;;31.19;;
2710;SDS011;20721;47.402;8.550;2022-12-20T01:53:09;32.48;;;31.19;;
2710;SDS011;20721;47.402;8.550;2022-12-20T01:54:13;32.31;;;30.94;;
2710;SDS011;20721;47.402;8.550;2022-12-20T01:55:19;31.86;;;30.94;;
2710;SDS011;20721;47.402;8.550;2022-12-20T01:57:17;31.58;;;30.53;;
2710;SDS011;20721;47.402;8.550;2022-12-20T01:58:11;31.58;;;30.53;;
2710;SDS011;20721;47.402;8.550;2022-12-20T02:00:07;32.64;;;31.21;;
2710;SDS011;20721;47.402;8.550;2022-12-20T02:02:11;32.26;;;31.02;;
2710;SDS011;20721;47.402;8.550;2022-12-20T02:03:13;32.83;;;31.59;;
2710;SDS011;20721;47.402;8.550;2022-12-20T02:04:07;32.83;;;31.59;;
2710;SDS011;20721;47.402;8.550;2022-12-20T02:06:19;30.62;;;29.70;;
2710;SDS011;20721;47.402;8.550;2022-12-20T02:08:07;31.43;;;30.80;;
2710;SDS011;20721;47.402;8.550;2022-12-20T02:09:09;31.79;;;30.83;;
2710;SDS011;20721;47.402;8.550;2022-12-20T02:10:09;32.98;;;31.24;;
2710;SDS011;20721;47.402;8.550;2022-12-20T02:12:19;31.26;;;29.88;;
2710;SDS011;20721;47.402;8.550;2022-12-20T02:13:27;32.91;;;31.21;;
2710;SDS011;20721;47.402;8.550;2022-12-20T02:16:08;32.86;;;31.94;;
2710;SDS011;20721;47.402;8.550;2022-12-20T02:18:26;32.13;;;31.02;;
2710;SDS011;20721;47.402;8.550;2022-12-20T02:21:21;32.42;;;30.91;;
2710;SDS011;20721;47.402;8.550;2022-12-20T02:24:18;32.32;;;31.32;;
2710;SDS011;20721;47.402;8.550;2022-12-20T02:27:35;32.03;;;31.07;;
2710;SDS011;20721;47.402;8.550;2022-12-20T02:29:35;35.45;;;33.37;;
2710;SDS011;20721;47.402;8.550;2022-12-20T02:30:18;33.24;;;31.76;;
2710;SDS011;20721;47.402;8.550;2022-12-20T02:31:11;33.24;;;31.76;;
2710;SDS011;20721;47.402;8.550;2022-12-20T02:32:19;32.26;;;31.16;;
2710;SDS011;20721;47.402;8.550;2022-12-20T02:33:11;31.56;;;30.16;;
2710;SDS011;20721;47.402;8.550;2022-12-20T02:34:14;31.37;;;30.27;;
2710;SDS011;20721;47.402;8.550;2022-12-20T02:35:08;31.37;;;30.27;;
2710;SDS011;20721;47.402;8.550;2022-12-20T02:36:07;30.15;;;29.36;;
2710;SDS011;20721;47.402;8.550;2022-12-20T02:37:08;30.37;;;29.57;;
2710;SDS011;20721;47.402;8.550;2022-12-20T02:38:26;30.81;;;29.59;;
2710;SDS011;20721;47.402;8.550;2022-12-20T02:39:09;31.74;;;30.35;;
2710;SDS011;20721;47.402;8.550;2022-12-20T02:42:15;30.96;;;30.15;;
2710;SDS011;20721;47.402;8.550;2022-12-20T02:44:21;34.73;;;33.12;;
2710;SDS011;20721;47.402;8.550;2022-12-20T02:45:19;32.90;;;31.81;;
2710;SDS011;20721;47.402;8.550;2022-12-20T02:46:09;32.90;;;31.81;;
2710;SDS011;20721;47.402;8.550;2022-12-20T02:47:11;31.96;;;30.87;;
2710;SDS011;20721;47.402;8.550;2022-12-20T02:49:12;31.30;;;30.71;;
2710;SDS011;20721;47.402;8.550;2022-12-20T02:50:08;32.67;;;31.60;;
2710;SDS011;20721;47.402;8.550;2022-12-20T02:51:09;34.11;;;32.59;;
2710;SDS011;20721;47.402;8.550;2022-12-20T02:52:09;31.94;;;30.39;;
2710;SDS011;20721;47.402;8.550;2022-12-20T02:53:09;32.64;;;31.23;;
2710;SDS011;20721;47.402;8.550;2022-12-20T02:54:08;32.32;;;30.96;;
2710;SDS011;20721;47.402;8.550;2022-12-20T02:55:09;32.44;;;31.01;;
2710;SDS011;20721;47.402;8.550;2022-12-20T02:56:17;32.42;;;30.60;;
2710;SDS011;20721;47.402;8.550;2022-12-20T02:57:15;31.15;;;29.98;;
2710;SDS011;20721;47.402;8.550;2022-12-20T02:58:33;29.22;;;28.22;;
2710;SDS011;20721;47.402;8.550;2022-12-20T03:00:12;33.57;;;31.57;;
2710;SDS011;20721;47.402;8.550;2022-12-20T03:01:11;33.65;;;31.46;;
2710;SDS011;20721;47.402;8.550;2022-12-20T03:02:08;32.65;;;31.34;;
2710;SDS011;20721;47.402;8.550;2022-12-20T03:03:18;30.89;;;29.78;;
2710;SDS011;20721;47.402;8.550;2022-12-20T03:04:08;30.89;;;29.78;;
2710;SDS011;20721;47.402;8.550;2022-12-20T03:05:08;32.28;;;31.32;;
2710;SDS011;20721;47.402;8.550;2022-12-20T03:06:07;31.57;;;30.43;;
2710;SDS011;20721;47.402;8.550;2022-12-20T03:08:08;32.77;;;30.99;;
2710;SDS011;20721;47.402;8.550;2022-12-20T03:10:07;30.79;;;29.65;;
2710;SDS011;20721;47.402;8.550;2022-12-20T03:11:12;30.49;;;29.61;;
2710;SDS011;20721;47.402;8.550;2022-12-20T03:12:08;30.49;;;29.61;;
2710;SDS011;20721;47.402;8.550;2022-12-20T03:13:07;28.18;;;27.54;;
2710;SDS011;20721;47.402;8.550;2022-12-20T03:14:07;30.82;;;29.87;;
2710;SDS011;20721;47.402;8.550;2022-12-20T03:15:07;31.05;;;30.24;;
2710;SDS011;20721;47.402;8.550;2022-12-20T03:17:12;29.71;;;28.70;;
2710;SDS011;20721;47.402;8.550;2022-12-20T03:18:07;29.71;;;28.70;;
2710;SDS011;20721;47.402;8.550;2022-12-20T03:19:07;29.97;;;28.68;;
2710;SDS011;20721;47.402;8.550;2022-12-20T03:20:07;31.90;;;30.37;;
2710;SDS011;20721;47.402;8.550;2022-12-20T03:21:07;28.69;;;28.01;;
2710;SDS011;20721;47.402;8.550;2022-12-20T03:22:08;28.69;;;27.77;;
2710;SDS011;20721;47.402;8.550;2022-12-20T03:23:07;28.19;;;27.26;;
2710;SDS011;20721;47.402;8.550;2022-12-20T03:24:07;29.57;;;28.52;;
2710;SDS011;20721;47.402;8.550;2022-12-20T03:25:08;29.73;;;28.35;;
2710;SDS011;20721;47.402;8.550;2022-12-20T03:26:07;31.83;;;30.64;;
2710;SDS011;20721;47.402;8.550;2022-12-20T03:27:07;31.15;;;29.96;;
2710;SDS011;20721;47.402;8.550;2022-12-20T03:28:07;30.50;;;29.22;;
2710;SDS011;20721;47.402;8.550;2022-12-20T03:29:08;31.17;;;29.76;;
2710;SDS011;20721;47.402;8.550;2022-12-20T03:30:07;30.05;;;29.34;;
2710;SDS011;20721;47.402;8.550;2022-12-20T03:31:07;31.54;;;30.60;;
2710;SDS011;20721;47.402;8.550;2022-12-20T03:32:07;30.38;;;29.16;;
2710;SDS011;20721;47.402;8.550;2022-12-20T03:33:07;31.39;;;30.10;;
2710;SDS011;20721;47.402;8.550;2022-12-20T03:34:07;30.76;;;29.56;;
2710;SDS011;20721;47.402;8.550;2022-12-20T03:35:07;31.98;;;30.79;;
2710;SDS011;20721;47.402;8.550;2022-12-20T03:36:07;30.63;;;29.32;;
2710;SDS011;20721;47.402;8.550;2022-12-20T03:37:07;31.79;;;30.43;;
2710;SDS011;20721;47.402;8.550;2022-12-20T03:38:07;31.98;;;30.89;;
2710;SDS011;20721;47.402;8.550;2022-12-20T03:39:08;31.49;;;30.29;;
2710;SDS011;20721;47.402;8.550;2022-12-20T03:40:08;31.77;;;30.99;;
2710;SDS011;20721;47.402;8.550;2022-12-20T03:41:07;33.91;;;32.51;;
2710;SDS011;20721;47.402;8.550;2022-12-20T03:42:07;31.69;;;30.32;;
2710;SDS011;20721;47.402;8.550;2022-12-20T03:43:07;33.58;;;31.85;;
2710;SDS011;20721;47.402;8.550;2022-12-20T03:45:08;34.76;;;33.42;;
2710;SDS011;20721;47.402;8.550;2022-12-20T03:46:07;34.86;;;33.03;;
2710;SDS011;20721;47.402;8.550;2022-12-20T03:47:07;35.70;;;33.88;;
2710;SDS011;20721;47.402;8.550;2022-12-20T03:48:13;32.90;;;31.59;;
2710;SDS011;20721;47.402;8.550;2022-12-20T03:49:07;32.90;;;31.59;;
2710;SDS011;20721;47.402;8.550;2022-12-20T03:50:07;35.65;;;34.28;;
2710;SDS011;20721;47.402;8.550;2022-12-20T03:51:07;35.91;;;33.85;;
2710;SDS011;20721;47.402;8.550;2022-12-20T03:52:09;36.21;;;34.09;;
2710;SDS011;20721;47.402;8.550;2022-12-20T03:53:07;33.75;;;32.31;;
2710;SDS011;20721;47.402;8.550;2022-12-20T03:54:12;35.20;;;33.23;;
2710;SDS011;20721;47.402;8.550;2022-12-20T03:55:07;35.20;;;33.23;;
2710;SDS011;20721;47.402;8.550;2022-12-20T03:56:07;33.29;;;31.77;;
2710;SDS011;20721;47.402;8.550;2022-12-20T03:57:07;36.61;;;34.28;;
2710;SDS011;20721;47.402;8.550;2022-12-20T03:58:07;33.29;;;32.05;;
2710;SDS011;20721;47.402;8.550;2022-12-20T03:59:07;33.35;;;31.74;;
2710;SDS011;20721;47.402;8.550;2022-12-20T04:00:08;36.14;;;33.85;;
2710;SDS011;20721;47.402;8.550;2022-12-20T04:01:17;35.79;;;33.51;;
2710;SDS011;20721;47.402;8.550;2022-12-20T04:02:08;37.50;;;34.98;;
2710;SDS011;20721;47.402;8.550;2022-12-20T04:03:08;33.87;;;32.46;;
2710;SDS011;20721;47.402;8.550;2022-12-20T04:04:09;33.71;;;32.20;;
2710;SDS011;20721;47.402;8.550;2022-12-20T04:05:07;34.97;;;33.74;;
2710;SDS011;20721;47.402;8.550;2022-12-20T04:06:07;34.14;;;33.04;;
2710;SDS011;20721;47.402;8.550;2022-12-20T04:07:07;34.70;;;33.00;;
2710;SDS011;20721;47.402;8.550;2022-12-20T04:08:08;34.49;;;33.12;;
2710;SDS011;20721;47.402;8.550;2022-12-20T04:09:07;32.08;;;30.95;;
2710;SDS011;20721;47.402;8.550;2022-12-20T04:10:08;34.87;;;33.46;;
2710;SDS011;20721;47.402;8.550;2022-12-20T04:11:17;33.70;;;32.44;;
2710;SDS011;20721;47.402;8.550;2022-12-20T04:12:08;33.70;;;32.44;;
2710;SDS011;20721;47.402;8.550;2022-12-20T04:13:07;33.36;;;32.24;;
2710;SDS011;20721;47.402;8.550;2022-12-20T04:15:08;35.27;;;32.78;;
2710;SDS011;20721;47.402;8.550;2022-12-20T04:16:12;34.37;;;32.86;;
2710;SDS011;20721;47.402;8.550;2022-12-20T04:17:07;33.92;;;32.66;;
2710;SDS011;20721;47.402;8.550;2022-12-20T04:19:07;34.21;;;32.85;;
2710;SDS011;20721;47.402;8.550;2022-12-20T04:20:08;34.95;;;33.12;;
2710;SDS011;20721;47.402;8.550;2022-12-20T04:22:15;32.50;;;31.28;;
2710;SDS011;20721;47.402;8.550;2022-12-20T04:23:07;32.50;;;31.28;;
2710;SDS011;20721;47.402;8.550;2022-12-20T04:24:08;34.11;;;32.69;;
2710;SDS011;20721;47.402;8.550;2022-12-20T04:25:08;31.39;;;30.33;;
2710;SDS011;20721;47.402;8.550;2022-12-20T04:26:08;34.25;;;32.54;;
2710;SDS011;20721;47.402;8.550;2022-12-20T04:27:07;34.06;;;32.58;;
2710;SDS011;20721;47.402;8.550;2022-12-20T04:28:08;33.80;;;32.43;;
2710;SDS011;20721;47.402;8.550;2022-12-20T04:29:08;34.11;;;32.60;;
2710;SDS011;20721;47.402;8.550;2022-12-20T04:30:08;33.12;;;31.72;;
2710;SDS011;20721;47.402;8.550;2022-12-20T04:31:13;35.36;;;33.28;;
2710;SDS011;20721;47.402;8.550;2022-12-20T04:32:08;35.36;;;33.28;;
2710;SDS011;20721;47.402;8.550;2022-12-20T04:34:07;32.47;;;30.89;;
2710;SDS011;20721;47.402;8.550;2022-12-20T04:35:08;32.63;;;31.60;;
2710;SDS011;20721;47.402;8.550;2022-12-20T04:36:08;31.74;;;30.70;;
2710;SDS011;20721;47.402;8.550;2022-12-20T04:37:07;30.76;;;29.76;;
2710;SDS011;20721;47.402;8.550;2022-12-20T04:38:07;31.73;;;30.63;;
2710;SDS011;20721;47.402;8.550;2022-12-20T04:39:08;31.59;;;30.10;;
2710;SDS011;20721;47.402;8.550;2022-12-20T04:40:08;33.57;;;31.70;;
2710;SDS011;20721;47.402;8.550;2022-12-20T04:43:08;32.44;;;30.97;;
2710;SDS011;20721;47.402;8.550;2022-12-20T04:44:08;32.92;;;32.09;;
2710;SDS011;20721;47.402;8.550;2022-12-20T04:47:08;31.92;;;30.48;;
2710;SDS011;20721;47.402;8.550;2022-12-20T04:48:08;31.53;;;30.40;;
2710;SDS011;20721;47.402;8.550;2022-12-20T04:51:07;29.69;;;28.93;;
2710;SDS011;20721;47.402;8.550;2022-12-20T04:52:17;30.58;;;29.75;;
2710;SDS011;20721;47.402;8.550;2022-12-20T04:53:20;30.82;;;29.61;;
2710;SDS011;20721;47.402;8.550;2022-12-20T04:54:08;30.82;;;29.61;;
2710;SDS011;20721;47.402;8.550;2022-12-20T04:55:08;31.87;;;30.44;;
2710;SDS011;20721;47.402;8.550;2022-12-20T04:56:07;29.59;;;28.34;;
2710;SDS011;20721;47.402;8.550;2022-12-20T04:57:07;31.12;;;29.59;;
2710;SDS011;20721;47.402;8.550;2022-12-20T04:58:17;30.52;;;29.71;;
2710;SDS011;20721;47.402;8.550;2022-12-20T04:59:08;30.52;;;29.71;;
2710;SDS011;20721;47.402;8.550;2022-12-20T05:01:08;32.57;;;30.79;;
2710;SDS011;20721;47.402;8.550;2022-12-20T05:03:08;31.74;;;30.54;;
2710;SDS011;20721;47.402;8.550;2022-12-20T05:04:08;30.06;;;29.11;;
2710;SDS011;20721;47.402;8.550;2022-12-20T05:05:08;33.17;;;31.68;;
2710;SDS011;20721;47.402;8.550;2022-12-20T05:06:08;30.27;;;29.23;;
2710;SDS011;20721;47.402;8.550;2022-12-20T05:07:07;31.22;;;30.19;;
2710;SDS011;20721;47.402;8.550;2022-12-20T05:08:08;30.27;;;29.44;;
2710;SDS011;20721;47.402;8.550;2022-12-20T05:09:08;30.64;;;29.60;;
2710;SDS011;20721;47.402;8.550;2022-12-20T05:10:08;31.84;;;31.10;;
2710;SDS011;20721;47.402;8.550;2022-12-20T05:11:08;32.24;;;30.76;;
2710;SDS011;20721;47.402;8.550;2022-12-20T05:12:07;32.02;;;30.93;;
2710;SDS011;20721;47.402;8.550;2022-12-20T05:13:08;33.15;;;32.17;;
2710;SDS011;20721;47.402;8.550;2022-12-20T05:14:08;31.38;;;30.57;;
2710;SDS011;20721;47.402;8.550;2022-12-20T05:15:08;32.91;;;31.90;;
2710;SDS011;20721;47.402;8.550;2022-12-20T05:16:08;32.68;;;31.25;;
2710;SDS011;20721;47.402;8.550;2022-12-20T05:17:08;32.64;;;31.16;;
2710;SDS011;20721;47.402;8.550;2022-12-20T05:18:09;32.41;;;31.11;;
2710;SDS011;20721;47.402;8.550;2022-12-20T05:19:08;32.86;;;31.61;;
2710;SDS011;20721;47.402;8.550;2022-12-20T05:20:08;31.99;;;30.91;;
2710;SDS011;20721;47.402;8.550;2022-12-20T05:21:18;31.67;;;30.48;;
2710;SDS011;20721;47.402;8.550;2022-12-20T05:22:19;32.68;;;31.63;;
2710;SDS011;20721;47.402;8.550;2022-12-20T05:23:18;32.68;;;30.84;;
2710;SDS011;20721;47.402;8.550;2022-12-20T05:24:18;33.64;;;32.21;;
2710;SDS011;20721;47.402;8.550;2022-12-20T05:25:19;31.05;;;30.06;;
2710;SDS011;20721;47.402;8.550;2022-12-20T05:26:18;30.91;;;30.20;;
2710;SDS011;20721;47.402;8.550;2022-12-20T05:27:08;30.91;;;30.20;;
2710;SDS011;20721;47.402;8.550;2022-12-20T05:28:08;32.55;;;31.13;;
2710;SDS011;20721;47.402;8.550;2022-12-20T05:29:08;32.61;;;30.75;;
2710;SDS011;20721;47.402;8.550;2022-12-20T05:30:08;31.73;;;30.42;;
2710;SDS011;20721;47.402;8.550;2022-12-20T05:31:08;30.61;;;29.49;;
2710;SDS011;20721;47.402;8.550;2022-12-20T05:32:08;32.53;;;31.29;;
2710;SDS011;20721;47.402;8.550;2022-12-20T05:33:08;31.96;;;30.98;;
2710;SDS011;20721;47.402;8.550;2022-12-20T05:34:08;32.57;;;31.90;;
2710;SDS011;20721;47.402;8.550;2022-12-20T05:35:08;30.39;;;29.79;;
2710;SDS011;20721;47.402;8.550;2022-12-20T05:36:08;30.96;;;29.72;;
2710;SDS011;20721;47.402;8.550;2022-12-20T05:38:08;31.21;;;29.97;;
2710;SDS011;20721;47.402;8.550;2022-12-20T05:39:15;32.23;;;31.20;;
2710;SDS011;20721;47.402;8.550;2022-12-20T05:41:08;31.10;;;30.10;;
2710;SDS011;20721;47.402;8.550;2022-12-20T05:42:08;30.55;;;29.30;;
2710;SDS011;20721;47.402;8.550;2022-12-20T05:43:08;29.42;;;28.52;;
2710;SDS011;20721;47.402;8.550;2022-12-20T05:44:08;30.44;;;29.51;;
2710;SDS011;20721;47.402;8.550;2022-12-20T05:45:08;30.32;;;28.93;;
2710;SDS011;20721;47.402;8.550;2022-12-20T05:46:08;29.18;;;28.41;;
2710;SDS011;20721;47.402;8.550;2022-12-20T05:47:08;30.75;;;29.85;;
2710;SDS011;20721;47.402;8.550;2022-12-20T05:48:08;30.13;;;29.20;;
2710;SDS011;20721;47.402;8.550;2022-12-20T05:49:08;29.58;;;28.68;;
2710;SDS011;20721;47.402;8.550;2022-12-20T05:50:09;31.20;;;29.64;;
2710;SDS011;20721;47.402;8.550;2022-12-20T05:51:08;31.49;;;29.90;;
2710;SDS011;20721;47.402;8.550;2022-12-20T05:52:08;30.13;;;29.22;;
2710;SDS011;20721;47.402;8.550;2022-12-20T05:53:08;30.92;;;29.88;;
2710;SDS011;20721;47.402;8.550;2022-12-20T05:54:08;30.34;;;29.07;;
2710;SDS011;20721;47.402;8.550;2022-12-20T05:55:08;30.42;;;29.35;;
2710;SDS011;20721;47.402;8.550;2022-12-20T05:56:08;30.95;;;29.58;;
2710;SDS011;20721;47.402;8.550;2022-12-20T05:58:08;30.95;;;30.08;;
2710;SDS011;20721;47.402;8.550;2022-12-20T05:59:08;30.58;;;29.52;;
2710;SDS011;20721;47.402;8.550;2022-12-20T06:00:08;29.83;;;29.05;;
2710;SDS011;20721;47.402;8.550;2022-12-20T06:01:12;32.64;;;31.01;;
2710;SDS011;20721;47.402;8.550;2022-12-20T06:02:08;32.64;;;31.01;;
2710;SDS011;20721;47.402;8.550;2022-12-20T06:03:08;34.30;;;32.90;;
2710;SDS011;20721;47.402;8.550;2022-12-20T06:04:08;31.16;;;30.17;;
2710;SDS011;20721;47.402;8.550;2022-12-20T06:05:08;31.66;;;30.51;;
2710;SDS011;20721;47.402;8.550;2022-12-20T06:06:08;32.45;;;31.33;;
2710;SDS011;20721;47.402;8.550;2022-12-20T06:07:08;32.63;;;31.66;;
2710;SDS011;20721;47.402;8.550;2022-12-20T06:09:08;31.78;;;30.65;;
2710;SDS011;20721;47.402;8.550;2022-12-20T06:10:08;31.90;;;30.76;;
2710;SDS011;20721;47.402;8.550;2022-12-20T06:11:08;32.88;;;30.99;;
2710;SDS011;20721;47.402;8.550;2022-12-20T06:12:08;34.98;;;33.09;;
2710;SDS011;20721;47.402;8.550;2022-12-20T06:13:09;34.24;;;32.94;;
2710;SDS011;20721;47.402;8.550;2022-12-20T06:14:08;33.11;;;31.73;;
2710;SDS011;20721;47.402;8.550;2022-12-20T06:15:08;33.29;;;31.70;;
2710;SDS011;20721;47.402;8.550;2022-12-20T06:16:13;33.31;;;31.66;;
2710;SDS011;20721;47.402;8.550;2022-12-20T06:19:08;31.87;;;30.93;;
2710;SDS011;20721;47.402;8.550;2022-12-20T06:20:08;34.62;;;32.74;;
2710;SDS011;20721;47.402;8.550;2022-12-20T06:21:08;33.42;;;32.33;;
2710;SDS011;20721;47.402;8.550;2022-12-20T06:22:13;32.70;;;31.39;;
2710;SDS011;20721;47.402;8.550;2022-12-20T06:23:08;31.96;;;31.12;;
2710;SDS011;20721;47.402;8.550;2022-12-20T06:24:08;34.44;;;32.64;;
2710;SDS011;20721;47.402;8.550;2022-12-20T06:25:08;35.13;;;33.03;;
2710;SDS011;20721;47.402;8.550;2022-12-20T06:26:08;32.36;;;30.52;;
2710;SDS011;20721;47.402;8.550;2022-12-20T06:27:08;36.56;;;33.63;;
2710;SDS011;20721;47.402;8.550;2022-12-20T06:29:12;32.51;;;31.30;;
2710;SDS011;20721;47.402;8.550;2022-12-20T06:30:08;32.51;;;31.30;;
2710;SDS011;20721;47.402;8.550;2022-12-20T06:31:09;33.70;;;32.24;;
2710;SDS011;20721;47.402;8.550;2022-12-20T06:32:08;33.84;;;32.15;;
2710;SDS011;20721;47.402;8.550;2022-12-20T06:33:08;32.06;;;30.81;;
2710;SDS011;20721;47.402;8.550;2022-12-20T06:34:08;34.00;;;32.23;;
2710;SDS011;20721;47.402;8.550;2022-12-20T06:35:08;32.95;;;31.63;;
2710;SDS011;20721;47.402;8.550;2022-12-20T06:36:08;33.28;;;31.92;;
2710;SDS011;20721;47.402;8.550;2022-12-20T06:38:08;34.68;;;32.92;;
2710;SDS011;20721;47.402;8.550;2022-12-20T06:39:08;33.79;;;32.35;;
2710;SDS011;20721;47.402;8.550;2022-12-20T06:40:10;31.58;;;30.50;;
2710;SDS011;20721;47.402;8.550;2022-12-20T06:41:08;33.65;;;32.10;;
2710;SDS011;20721;47.402;8.550;2022-12-20T06:42:08;33.22;;;31.88;;
2710;SDS011;20721;47.402;8.550;2022-12-20T06:43:08;32.57;;;30.89;;
2710;SDS011;20721;47.402;8.550;2022-12-20T06:44:08;33.54;;;32.30;;
2710;SDS011;20721;47.402;8.550;2022-12-20T06:45:08;31.74;;;30.48;;
2710;SDS011;20721;47.402;8.550;2022-12-20T06:46:08;31.62;;;30.69;;
2710;SDS011;20721;47.402;8.550;2022-12-20T06:48:08;32.97;;;31.48;;
2710;SDS011;20721;47.402;8.550;2022-12-20T06:49:09;32.31;;;31.14;;
2710;SDS011;20721;47.402;8.550;2022-12-20T06:50:09;32.53;;;31.26;;
2710;SDS011;20721;47.402;8.550;2022-12-20T06:51:08;32.84;;;31.61;;
2710;SDS011;20721;47.402;8.550;2022-12-20T06:52:08;35.34;;;33.61;;
2710;SDS011;20721;47.402;8.550;2022-12-20T06:53:08;32.29;;;31.16;;